Time;durP1;ratioP1;P1;durP2;ratioP2;P2;SDS_P1;SDS_P2;PMS_P1;PMS_P2;Temp;Humidity;BMP_temperature;BMP_pressure;BME280_temperature;BME280_humidity;BME280_pressure;Samples;Min_cycle;Max_cycle;Signal;HPM_P1;HPM_P2
2022/05/27 00:01:16;;;;;;;7.60;1.95;;;;;;;;;;5028620;28;20078;-71
2022/05/27 00:03:41;;;;;;;5.50;1.48;;;;;;;;;;5019497;28;20528;-70
2022/05/27 00:06:06;;;;;;;6.00;1.80;;;;;;;;;;5019730;28;20029;-71
2022/05/27 00:08:32;;;;;;;4.07;1.40;;;;;;;;;;5029178;28;20364;-71
2022/05/27 00:10:58;;;;;;;8.88;1.30;;;;;;;;;;5018529;28;20096;-71
2022/05/27 00:13:23;;;;;;;5.10;1.48;;;;;;;;;;5028057;28;20017;-71
2022/05/27 00:15:48;;;;;;;5.90;1.55;;;;;;;;;;5017656;28;20045;-71
2022/05/27 00:18:13;;;;;;;8.70;1.90;;;;;;;;;;5024082;28;20629;-71
2022/05/27 00:20:39;;;;;;;4.63;1.27;;;;;;;;;;5021559;28;20036;-71
2022/05/27 00:23:04;;;;;;;13.03;1.77;;;;;;;;;;5023385;28;20268;-70
2022/05/27 00:25:29;;;;;;;5.55;1.77;;;;;;;;;;5023255;28;20633;-70
2022/05/27 00:27:55;;;;;;;3.80;1.77;;;;;;;;;;5026448;28;20036;-71
2022/05/27 00:30:21;;;;;;;4.93;1.75;;;;;;;;;;5025780;28;20763;-71
2022/05/27 00:32:46;;;;;;;2.77;1.40;;;;;;;;;;5021126;28;20036;-70
2022/05/27 00:35:11;;;;;;;4.20;1.58;;;;;;;;;;5022421;28;20276;-71
2022/05/27 00:37:36;;;;;;;4.65;1.08;;;;;;;;;;5030259;28;20032;-70
2022/05/27 00:40:02;;;;;;;4.00;1.05;;;;;;;;;;5022586;28;20025;-72
2022/05/27 00:42:27;;;;;;;7.47;1.83;;;;;;;;;;5028986;28;20025;-71
2022/05/27 00:44:52;;;;;;;1.88;1.10;;;;;;;;;;5029445;28;20386;-71
2022/05/27 00:47:20;;;;;;;8.43;1.93;;;;;;;;;;5026104;28;20465;-71
2022/05/27 00:49:53;;;;;;;7.15;1.98;;;;;;;;;;5026705;28;20283;-71
2022/05/27 00:52:20;;;;;;;5.85;2.13;;;;;;;;;;5024502;28;20025;-71
2022/05/27 00:54:45;;;;;;;4.80;2.10;;;;;;;;;;5023470;28;20024;-71
2022/05/27 00:57:14;;;;;;;7.13;1.60;;;;;;;;;;5017311;28;20021;-70
2022/05/27 00:59:45;;;;;;;6.85;2.50;;;;;;;;;;5026546;28;20025;-71
2022/05/27 01:02:10;;;;;;;7.07;2.45;;;;;;;;;;5022732;28;20034;-70
2022/05/27 01:04:36;;;;;;;14.30;2.47;;;;;;;;;;5023907;28;20030;-69
2022/05/27 01:07:02;;;;;;;7.75;2.80;;;;;;;;;;5013460;28;20048;-71
2022/05/27 01:09:29;;;;;;;11.50;3.88;;;;;;;;;;5018670;28;20025;-70
2022/05/27 01:12:00;;;;;;;7.55;3.72;;;;;;;;;;5024843;28;20057;-70
2022/05/27 01:14:36;;;;;;;15.60;3.55;;;;;;;;;;5022942;28;20013;-71
2022/05/27 01:17:05;;;;;;;8.50;3.65;;;;;;;;;;5023320;28;20046;-69
2022/05/27 01:22:43;;;;;;;7.80;3.22;;;;;;;;;;5018904;28;20072;-69
2022/05/27 01:25:39;;;;;;;10.98;3.58;;;;;;;;;;5023506;28;20052;-69
2022/05/27 01:28:13;;;;;;;11.35;3.33;;;;;;;;;;5020276;28;20116;-69
2022/05/27 01:30:44;;;;;;;8.73;3.50;;;;;;;;;;5026315;28;20029;-69
2022/05/27 01:33:12;;;;;;;8.30;3.17;;;;;;;;;;5024881;28;20017;-69
2022/05/27 01:35:41;;;;;;;10.27;3.80;;;;;;;;;;5020815;28;20026;-69
2022/05/27 01:38:12;;;;;;;11.60;3.83;;;;;;;;;;5025612;28;20072;-71
2022/05/27 01:40:40;;;;;;;19.75;4.97;;;;;;;;;;5022568;28;20033;-70
2022/05/27 01:43:16;;;;;;;8.73;3.17;;;;;;;;;;5019399;28;20060;-69
2022/05/27 01:45:44;;;;;;;11.82;3.50;;;;;;;;;;5019474;28;20591;-70
2022/05/27 01:48:13;;;;;;;7.25;3.13;;;;;;;;;;5023881;28;20040;-69
2022/05/27 01:50:49;;;;;;;7.10;2.80;;;;;;;;;;5022675;28;20032;-70
2022/05/27 01:53:24;;;;;;;9.43;3.67;;;;;;;;;;5024629;28;20029;-69
2022/05/27 01:55:53;;;;;;;8.27;2.60;;;;;;;;;;5021256;28;20395;-72
2022/05/27 01:58:21;;;;;;;8.13;2.78;;;;;;;;;;5023867;28;20108;-71
2022/05/27 02:00:48;;;;;;;17.42;4.03;;;;;;;;;;5017917;28;20047;-70
2022/05/27 02:03:25;;;;;;;19.30;4.97;;;;;;;;;;5024304;28;20512;-70
2022/05/27 02:06:05;;;;;;;9.25;3.92;;;;;;;;;;5025226;28;20033;-74
2022/05/27 02:08:30;;;;;;;;;;;;;;;;;;5019902;28;20147;-69
2022/05/27 02:10:59;;;;;;;11.38;3.50;;;;;;;;;;5021862;28;20002;-70
2022/05/27 02:13:34;;;;;;;9.82;3.95;;;;;;;;;;5018884;28;20022;-69
2022/05/27 02:16:00;;;;;;;10.77;4.45;;;;;;;;;;5017967;28;20036;-69
2022/05/27 02:18:40;;;;;;;9.98;3.65;;;;;;;;;;5023190;28;20369;-69
2022/05/27 02:21:12;;;;;;;10.40;3.80;;;;;;;;;;5019000;28;20026;-71
2022/05/27 02:23:40;;;;;;;16.00;4.53;;;;;;;;;;5021110;28;20029;-69
2022/05/27 02:26:08;;;;;;;13.25;3.42;;;;;;;;;;5020325;28;20064;-73
2022/05/27 02:28:45;;;;;;;14.60;3.67;;;;;;;;;;5021470;28;20025;-69
2022/05/27 02:31:23;;;;;;;11.68;3.95;;;;;;;;;;5021052;28;20039;-69
2022/05/27 02:36:42;;;;;;;13.80;3.88;;;;;;;;;;5017634;28;20072;-71
2022/05/27 02:39:08;;;;;;;9.45;3.70;;;;;;;;;;5019797;28;20022;-69
2022/05/27 02:41:39;;;;;;;17.15;3.70;;;;;;;;;;5019722;28;20037;-69
2022/05/27 02:44:09;;;;;;;11.45;3.25;;;;;;;;;;5019891;28;20507;-72
2022/05/27 02:46:53;;;;;;;8.05;3.40;;;;;;;;;;5021514;28;20042;-69
2022/05/27 02:49:25;;;;;;;13.02;4.10;;;;;;;;;;5023129;28;20100;-70
2022/05/27 02:51:56;;;;;;;14.65;3.70;;;;;;;;;;5025402;28;20026;-70
2022/05/27 02:54:24;;;;;;;12.70;3.35;;;;;;;;;;5021650;28;20025;-69
2022/05/27 02:56:55;;;;;;;14.20;4.85;;;;;;;;;;5014160;28;20098;-69
2022/05/27 02:59:20;;;;;;;11.63;3.50;;;;;;;;;;5022625;28;20021;-69
2022/05/27 03:01:46;;;;;;;8.10;3.72;;;;;;;;;;5023387;28;20685;-69
2022/05/27 03:04:12;;;;;;;17.92;3.47;;;;;;;;;;5024676;28;20026;-70
2022/05/27 03:06:38;;;;;;;7.03;2.60;;;;;;;;;;5017893;28;20060;-70
2022/05/27 03:09:03;;;;;;;13.52;5.43;;;;;;;;;;5022606;28;20386;-71
2022/05/27 03:11:31;;;;;;;19.17;5.00;;;;;;;;;;5013734;28;20053;-70
2022/05/27 03:13:56;;;;;;;14.93;4.25;;;;;;;;;;5024715;28;20022;-70
2022/05/27 03:16:30;;;;;;;11.83;4.07;;;;;;;;;;5018498;28;20493;-70
2022/05/27 03:19:16;;;;;;;15.00;5.45;;;;;;;;;;5023082;28;20803;-70
2022/05/27 03:22:00;;;;;;;15.57;6.47;;;;;;;;;;5025175;28;20477;-70
2022/05/27 03:24:39;;;;;;;16.23;5.32;;;;;;;;;;5020626;28;20026;-70
2022/05/27 03:27:16;;;;;;;9.38;4.38;;;;;;;;;;5019341;28;20010;-70
2022/05/27 03:30:00;;;;;;;7.68;3.85;;;;;;;;;;5021660;28;20100;-70
2022/05/27 03:32:39;;;;;;;9.23;4.03;;;;;;;;;;5022446;28;20017;-70
2022/05/27 03:35:13;;;;;;;9.70;4.55;;;;;;;;;;5021890;28;20022;-70
2022/05/27 03:37:38;;;;;;;13.98;4.35;;;;;;;;;;5022226;28;20079;-70
2022/05/27 03:40:04;;;;;;;10.67;4.53;;;;;;;;;;5020043;28;20022;-70
2022/05/27 03:42:30;;;;;;;8.35;4.72;;;;;;;;;;5024877;28;20268;-70
2022/05/27 03:45:07;;;;;;;11.75;4.88;;;;;;;;;;5019950;28;20030;-70
2022/05/27 03:47:33;;;;;;;7.78;3.95;;;;;;;;;;5024942;28;20410;-70
2022/05/27 03:49:58;;;;;;;12.90;4.97;;;;;;;;;;5025603;28;20084;-69
2022/05/27 03:52:25;;;;;;;14.87;4.57;;;;;;;;;;5027042;28;20426;-70
2022/05/27 03:54:50;;;;;;;10.65;4.43;;;;;;;;;;5020400;28;20287;-70
2022/05/27 03:57:15;;;;;;;8.67;3.57;;;;;;;;;;5024310;28;20029;-69
2022/05/27 03:59:41;;;;;;;10.67;4.00;;;;;;;;;;5024757;28;20307;-70
2022/05/27 04:02:06;;;;;;;8.48;4.13;;;;;;;;;;5027523;28;20268;-70
2022/05/27 04:04:31;;;;;;;13.10;4.38;;;;;;;;;;5022874;28;20481;-70
2022/05/27 04:06:57;;;;;;;10.27;3.97;;;;;;;;;;5022293;28;20558;-70
2022/05/27 04:09:23;;;;;;;10.00;4.50;;;;;;;;;;5024204;28;20498;-70
2022/05/27 04:11:48;;;;;;;11.57;5.47;;;;;;;;;;5024332;28;20041;-70
2022/05/27 04:14:13;;;;;;;7.97;3.90;;;;;;;;;;5019938;28;20030;-70
2022/05/27 04:16:39;;;;;;;9.27;3.70;;;;;;;;;;5025309;28;20417;-70
2022/05/27 04:19:04;;;;;;;12.55;3.80;;;;;;;;;;5022538;28;20029;-70
2022/05/27 04:21:30;;;;;;;7.15;3.00;;;;;;;;;;5020939;28;20469;-70
2022/05/27 04:23:55;;;;;;;9.63;3.70;;;;;;;;;;5021807;28;20032;-70
2022/05/27 04:26:20;;;;;;;8.50;4.07;;;;;;;;;;5024594;28;20021;-69
2022/05/27 04:28:46;;;;;;;7.25;3.42;;;;;;;;;;5027002;28;20033;-69
2022/05/27 04:31:11;;;;;;;6.80;3.85;;;;;;;;;;5027752;28;20105;-70
2022/05/27 04:33:36;;;;;;;12.30;3.90;;;;;;;;;;5025629;28;20018;-70
2022/05/27 04:36:02;;;;;;;11.00;5.30;;;;;;;;;;5019004;28;20094;-70
2022/05/27 04:38:28;;;;;;;11.60;5.63;;;;;;;;;;5025475;28;20264;-70
2022/05/27 04:40:53;;;;;;;14.00;5.93;;;;;;;;;;5020988;28;20540;-70
2022/05/27 04:43:18;;;;;;;15.98;5.57;;;;;;;;;;5022238;28;20033;-70
2022/05/27 04:45:44;;;;;;;10.55;5.10;;;;;;;;;;5019451;28;20021;-70
2022/05/27 04:48:09;;;;;;;14.93;5.82;;;;;;;;;;5022688;28;20040;-70
2022/05/27 04:50:34;;;;;;;19.77;6.90;;;;;;;;;;5016136;28;20026;-70
2022/05/27 04:53:00;;;;;;;17.35;7.03;;;;;;;;;;5018587;28;20355;-70
2022/05/27 04:55:25;;;;;;;16.90;7.97;;;;;;;;;;5025525;28;20620;-70
2022/05/27 04:57:52;;;;;;;14.30;8.07;;;;;;;;;;5026692;28;20280;-70
2022/05/27 05:00:17;;;;;;;23.38;9.63;;;;;;;;;;5016530;28;20021;-69
2022/05/27 05:02:43;;;;;;;17.00;9.13;;;;;;;;;;5022443;28;20535;-69
2022/05/27 05:05:09;;;;;;;17.65;9.40;;;;;;;;;;5024528;28;20013;-69
2022/05/27 05:07:34;;;;;;;23.52;9.75;;;;;;;;;;5022959;28;20044;-69
2022/05/27 05:10:00;;;;;;;19.27;9.38;;;;;;;;;;5021015;28;20022;-69
2022/05/27 05:12:25;;;;;;;19.52;9.75;;;;;;;;;;5022185;28;20028;-70
2022/05/27 05:14:51;;;;;;;26.03;11.00;;;;;;;;;;5020779;28;20017;-70
2022/05/27 05:17:16;;;;;;;17.77;10.18;;;;;;;;;;5026544;28;20272;-70
2022/05/27 05:19:41;;;;;;;24.00;10.13;;;;;;;;;;5023875;28;20997;-70
2022/05/27 05:22:06;;;;;;;22.90;10.17;;;;;;;;;;5017913;28;20128;-70
2022/05/27 05:24:32;;;;;;;28.87;9.00;;;;;;;;;;5024936;28;20280;-70
2022/05/27 05:26:57;;;;;;;26.57;10.17;;;;;;;;;;5017924;28;20277;-70
2022/05/27 05:29:22;;;;;;;20.33;9.32;;;;;;;;;;5023787;28;20617;-70
2022/05/27 05:31:47;;;;;;;18.40;10.10;;;;;;;;;;5018950;28;20032;-70
2022/05/27 05:34:12;;;;;;;16.83;10.27;;;;;;;;;;5022206;28;20264;-70
2022/05/27 05:36:38;;;;;;;17.55;9.65;;;;;;;;;;5022087;28;20817;-69
2022/05/27 05:39:03;;;;;;;33.10;9.68;;;;;;;;;;5027986;28;20040;-69
2022/05/27 05:41:32;;;;;;;17.75;8.88;;;;;;;;;;5020659;28;20501;-71
2022/05/27 05:43:58;;;;;;;21.85;8.27;;;;;;;;;;5024132;28;20025;-69
2022/05/27 05:46:24;;;;;;;17.92;8.45;;;;;;;;;;5023415;28;20021;-70
2022/05/27 05:48:49;;;;;;;10.13;5.28;;;;;;;;;;5020911;28;20033;-70
2022/05/27 05:51:14;;;;;;;12.35;4.18;;;;;;;;;;5019009;28;20034;-70
2022/05/27 05:53:39;;;;;;;6.33;3.40;;;;;;;;;;5017418;28;20145;-70
2022/05/27 05:56:05;;;;;;;7.37;2.67;;;;;;;;;;5021483;28;20760;-70
2022/05/27 05:58:30;;;;;;;4.78;2.47;;;;;;;;;;5026915;28;20319;-70
2022/05/27 06:00:55;;;;;;;5.50;2.22;;;;;;;;;;5023550;28;20036;-72
2022/05/27 06:03:20;;;;;;;8.10;2.33;;;;;;;;;;5020334;28;20025;-68
2022/05/27 06:05:47;;;;;;;11.40;2.53;;;;;;;;;;5022559;28;20391;-72
2022/05/27 06:08:14;;;;;;;8.02;2.33;;;;;;;;;;5017034;28;20470;-69
2022/05/27 06:10:40;;;;;;;6.82;2.30;;;;;;;;;;5019883;28;20087;-70
2022/05/27 06:13:05;;;;;;;9.88;2.88;;;;;;;;;;5018217;28;20022;-69
2022/05/27 06:15:30;;;;;;;7.53;2.10;;;;;;;;;;5025730;28;20556;-70
2022/05/27 06:17:55;;;;;;;4.65;1.92;;;;;;;;;;5022271;28;20485;-70
2022/05/27 06:20:21;;;;;;;6.30;2.00;;;;;;;;;;5019344;28;20100;-70
2022/05/27 06:22:46;;;;;;;6.65;2.22;;;;;;;;;;5022433;28;20473;-71
2022/05/27 06:25:12;;;;;;;8.33;2.10;;;;;;;;;;5018613;28;20405;-71
2022/05/27 06:27:37;;;;;;;6.20;2.22;;;;;;;;;;5021859;28;20311;-71
2022/05/27 06:35:32;;;;;;;11.27;3.00;;;;;;;;;;5026808;28;20036;-71
2022/05/27 06:37:57;;;;;;;5.05;2.30;;;;;;;;;;5024280;28;20089;-71
2022/05/27 06:40:22;;;;;;;4.88;2.63;;;;;;;;;;5026504;28;20097;-71
2022/05/27 06:42:47;;;;;;;6.37;2.33;;;;;;;;;;5019768;28;20041;-71
2022/05/27 06:45:13;;;;;;;8.47;3.20;;;;;;;;;;5020443;28;20270;-71
2022/05/27 06:47:38;;;;;;;12.50;2.78;;;;;;;;;;5027681;28;20648;-71
2022/05/27 06:50:04;;;;;;;7.55;2.33;;;;;;;;;;5019951;28;20033;-71
2022/05/27 06:52:30;;;;;;;6.78;2.60;;;;;;;;;;5024075;28;20020;-71
2022/05/27 06:54:55;;;;;;;6.20;2.28;;;;;;;;;;5028793;28;20021;-71
2022/05/27 06:57:20;;;;;;;5.43;2.30;;;;;;;;;;5024989;28;20482;-71
2022/05/27 06:59:45;;;;;;;10.13;2.92;;;;;;;;;;5025159;28;20013;-71
2022/05/27 07:02:11;;;;;;;11.90;2.57;;;;;;;;;;5017976;28;20478;-71
2022/05/27 07:04:36;;;;;;;14.05;2.80;;;;;;;;;;5017288;28;20272;-70
2022/05/27 07:07:04;;;;;;;9.70;2.77;;;;;;;;;;5019471;28;20033;-70
2022/05/27 07:09:31;;;;;;;11.02;2.53;;;;;;;;;;5029235;28;20275;-71
2022/05/27 07:11:57;;;;;;;12.93;2.67;;;;;;;;;;5024418;28;20032;-70
2022/05/27 07:14:22;;;;;;;11.48;2.90;;;;;;;;;;5021621;28;20026;-70
2022/05/27 07:16:48;;;;;;;6.43;2.13;;;;;;;;;;5027501;28;20117;-70
2022/05/27 07:19:14;;;;;;;10.48;2.42;;;;;;;;;;5022568;28;20024;-70
2022/05/27 07:21:40;;;;;;;13.13;2.47;;;;;;;;;;5029662;28;20036;-70
2022/05/27 07:24:09;;;;;;;12.05;3.17;;;;;;;;;;5028727;28;20025;-70
2022/05/27 07:26:35;;;;;;;12.73;2.80;;;;;;;;;;5022563;28;20484;-71
2022/05/27 07:29:00;;;;;;;10.68;2.50;;;;;;;;;;5025566;28;20145;-71
2022/05/27 07:31:25;;;;;;;15.70;4.23;;;;;;;;;;5028011;28;20036;-70
2022/05/27 07:33:51;;;;;;;14.07;3.17;;;;;;;;;;5020176;28;20949;-70
2022/05/27 07:36:16;;;;;;;13.23;2.77;;;;;;;;;;5032904;28;20268;-70
2022/05/27 07:38:41;;;;;;;9.17;2.90;;;;;;;;;;5020657;28;20762;-70
2022/05/27 07:41:06;;;;;;;11.75;3.10;;;;;;;;;;5022151;28;20362;-70
2022/05/27 07:43:32;;;;;;;12.98;3.25;;;;;;;;;;5022573;28;20029;-70
2022/05/27 07:45:58;;;;;;;10.43;3.28;;;;;;;;;;5022959;28;20076;-70
2022/05/27 07:48:23;;;;;;;10.50;2.28;;;;;;;;;;5025993;28;20060;-70
2022/05/27 07:50:48;;;;;;;13.43;2.70;;;;;;;;;;5029568;28;20030;-70
2022/05/27 07:53:15;;;;;;;7.83;2.70;;;;;;;;;;5017404;28;20018;-70
2022/05/27 07:55:41;;;;;;;10.23;2.55;;;;;;;;;;5022253;28;20623;-71
2022/05/27 07:58:07;;;;;;;6.37;2.30;;;;;;;;;;5024646;28;20021;-70
2022/05/27 08:00:33;;;;;;;11.65;3.20;;;;;;;;;;5026751;28;20281;-71
2022/05/27 08:02:58;;;;;;;7.63;2.55;;;;;;;;;;5020881;28;20025;-70
2022/05/27 08:05:25;;;;;;;7.73;2.70;;;;;;;;;;5021999;28;20093;-69
2022/05/27 08:07:50;;;;;;;13.07;3.78;;;;;;;;;;5027289;28;20763;-70
2022/05/27 08:10:17;;;;;;;13.00;2.47;;;;;;;;;;5022611;28;20025;-70
2022/05/27 08:12:42;;;;;;;9.30;2.13;;;;;;;;;;5021625;28;20425;-70
2022/05/27 08:15:08;;;;;;;11.88;4.03;;;;;;;;;;5022817;28;20030;-70
2022/05/27 08:17:33;;;;;;;16.02;2.90;;;;;;;;;;5026304;28;20021;-70
2022/05/27 08:19:59;;;;;;;17.33;3.22;;;;;;;;;;5024361;28;20485;-70
2022/05/27 08:22:25;;;;;;;11.97;3.07;;;;;;;;;;5027367;28;20359;-70
2022/05/27 08:24:50;;;;;;;18.88;3.60;;;;;;;;;;5022943;28;20287;-70
2022/05/27 08:27:15;;;;;;;16.48;3.90;;;;;;;;;;5024592;28;20037;-70
2022/05/27 08:29:40;;;;;;;22.75;4.78;;;;;;;;;;5019974;28;20034;-70
2022/05/27 08:32:06;;;;;;;10.80;5.57;;;;;;;;;;5026966;28;20036;-70
2022/05/27 08:40:01;;;;;;;18.70;6.20;;;;;;;;;;5024433;28;20052;-69
2022/05/27 08:42:32;;;;;;;16.17;5.63;;;;;;;;;;5025594;28;20025;-69
2022/05/27 08:45:16;;;;;;;16.40;6.10;;;;;;;;;;5024703;28;20497;-70
2022/05/27 08:47:44;;;;;;;14.52;7.70;;;;;;;;;;5027197;28;20021;-70
2022/05/27 08:50:11;;;;;;;17.73;7.32;;;;;;;;;;5020017;28;20034;-71
2022/05/27 08:52:48;;;;;;;22.58;7.85;;;;;;;;;;5024117;28;20390;-71
2022/05/27 09:00:59;;;;;;;12.30;5.63;;;;;;;;;;5023151;28;20628;-70
2022/05/27 09:03:25;;;;;;;12.85;5.22;;;;;;;;;;5015289;28;20025;-70
2022/05/27 09:06:00;;;;;;;17.38;4.72;;;;;;;;;;5017022;28;20490;-70
2022/05/27 09:08:26;;;;;;;14.85;5.07;;;;;;;;;;5020876;28;20048;-70
2022/05/27 09:10:57;;;;;;;15.57;4.88;;;;;;;;;;5023200;28;20021;-71
2022/05/27 09:13:35;;;;;;;12.98;4.45;;;;;;;;;;5019939;28;20498;-70
2022/05/27 09:16:16;;;;;;;7.93;3.08;;;;;;;;;;5026311;28;20377;-70
2022/05/27 09:18:48;;;;;;;9.32;3.80;;;;;;;;;;5016186;28;20159;-71
2022/05/27 09:21:13;;;;;;;8.88;4.00;;;;;;;;;;5018452;28;20029;-70
2022/05/27 09:23:41;;;;;;;13.47;4.77;;;;;;;;;;5021819;28;20033;-71
2022/05/27 09:26:09;;;;;;;9.90;4.55;;;;;;;;;;5024223;28;20723;-70
2022/05/27 09:28:34;;;;;;;9.18;4.88;;;;;;;;;;5028092;28;20557;-70
2022/05/27 09:31:00;;;;;;;9.35;3.75;;;;;;;;;;5026099;28;20112;-70
2022/05/27 09:33:26;;;;;;;14.05;5.68;;;;;;;;;;5022835;28;20475;-70
2022/05/27 09:36:03;;;;;;;9.63;4.57;;;;;;;;;;5024896;28;20017;-69
2022/05/27 09:38:30;;;;;;;13.77;5.70;;;;;;;;;;5028491;28;20513;-70
2022/05/27 09:41:01;;;;;;;8.68;4.03;;;;;;;;;;5019448;28;20025;-70
2022/05/27 09:43:28;;;;;;;;;;;;;;;;;;5022631;28;20569;-69
2022/05/27 09:45:58;;;;;;;10.43;4.55;;;;;;;;;;5019628;28;19986;-70
2022/05/27 09:48:24;;;;;;;6.65;2.95;;;;;;;;;;5021817;28;20037;-70
2022/05/27 09:50:49;;;;;;;12.15;3.53;;;;;;;;;;5022795;28;20029;-70
2022/05/27 09:53:16;;;;;;;6.75;2.88;;;;;;;;;;5017776;28;20075;-69
2022/05/27 09:56:02;;;;;;;13.68;2.58;;;;;;;;;;5018846;28;20536;-69
2022/05/27 09:58:35;;;;;;;9.98;3.17;;;;;;;;;;5019906;28;20437;-70
2022/05/27 10:01:17;;;;;;;6.28;2.47;;;;;;;;;;5022868;28;20036;-69
2022/05/27 10:03:42;;;;;;;7.15;2.33;;;;;;;;;;5022989;28;20080;-69
2022/05/27 10:06:12;;;;;;;5.95;2.55;;;;;;;;;;5023864;28;20021;-69
2022/05/27 10:08:39;;;;;;;6.57;2.55;;;;;;;;;;5022600;28;20028;-70
2022/05/27 10:11:10;;;;;;;19.30;2.88;;;;;;;;;;5028998;28;20021;-70
2022/05/27 10:13:35;;;;;;;;;;;;;;;;;;5028035;28;20029;-69
2022/05/27 10:16:05;;;;;;;9.63;2.63;;;;;;;;;;5026260;28;19966;-70
2022/05/27 10:18:30;;;;;;;5.82;2.63;;;;;;;;;;5028236;28;20021;-70
2022/05/27 10:21:00;;;;;;;8.47;2.40;;;;;;;;;;5025414;28;20088;-69
2022/05/27 10:23:28;;;;;;;5.72;2.60;;;;;;;;;;5022058;28;20272;-70
2022/05/27 10:25:53;;;;;;;10.25;2.58;;;;;;;;;;5027608;28;20048;-70
2022/05/27 10:28:29;;;;;;;7.68;2.75;;;;;;;;;;5024209;28;20026;-70
2022/05/27 10:30:57;;;;;;;8.85;2.67;;;;;;;;;;5012578;23;20031;-85
2022/05/27 10:33:24;;;;;;;13.93;3.25;;;;;;;;;;4958472;28;20088;-87
2022/05/27 10:35:50;;;;;;;15.95;3.15;;;;;;;;;;4963622;28;20054;-87
2022/05/27 10:38:33;;;;;;;10.43;4.32;;;;;;;;;;4983390;28;20022;-85
2022/05/27 10:41:14;;;;;;;7.22;2.13;;;;;;;;;;4971078;28;20030;-88
2022/05/27 10:43:54;;;;;;;9.00;2.40;;;;;;;;;;4985530;28;20383;-87
2022/05/27 10:46:21;;;;;;;8.23;2.78;;;;;;;;;;4988979;28;20125;-87
2022/05/27 10:49:05;;;;;;;7.10;2.10;;;;;;;;;;4984578;28;20030;-86
2022/05/27 10:51:39;;;;;;;14.70;3.17;;;;;;;;;;4981502;28;20113;-85
2022/05/27 10:54:04;;;;;;;14.18;2.15;;;;;;;;;;4984113;28;20007;-84
2022/05/27 10:56:40;;;;;;;12.82;3.70;;;;;;;;;;4986396;28;20073;-87
2022/05/27 11:02:24;;;;;;;7.85;2.42;;;;;;;;;;4920894;29;20460;-85
2022/05/27 11:05:01;;;;;;;7.70;2.23;;;;;;;;;;4980778;28;20030;-86
2022/05/27 11:07:32;;;;;;;11.15;3.25;;;;;;;;;;4985055;28;20495;-84
2022/05/27 11:10:00;;;;;;;11.68;2.25;;;;;;;;;;4987957;28;20019;-86
2022/05/27 11:15:32;;;;;;;9.82;2.42;;;;;;;;;;4984494;28;20390;-89
2022/05/27 11:18:18;;;;;;;9.55;2.17;;;;;;;;;;4967820;28;20481;-88
2022/05/27 11:21:02;;;;;;;8.18;2.40;;;;;;;;;;4986712;28;20048;-85
2022/05/27 11:23:28;;;;;;;7.32;2.88;;;;;;;;;;4990337;28;20018;-88
2022/05/27 11:25:56;;;;;;;8.40;3.40;;;;;;;;;;4983667;28;20073;-86
2022/05/27 11:28:21;;;;;;;6.97;2.80;;;;;;;;;;4984624;28;20074;-85
2022/05/27 11:31:14;;;;;;;11.23;4.07;;;;;;;;;;4977598;28;20065;-90
2022/05/27 11:34:22;;;;;;;11.63;2.60;;;;;;;;;;5002837;28;20031;-89
2022/05/27 11:36:59;;;;;;;13.93;3.13;;;;;;;;;;4931932;29;20032;-87
2022/05/27 11:39:52;;;;;;;9.77;2.92;;;;;;;;;;4918854;29;20047;-92
2022/05/27 11:42:29;;;;;;;9.48;3.30;;;;;;;;;;4921309;29;20028;-87
2022/05/27 11:45:13;;;;;;;9.48;2.65;;;;;;;;;;4927340;29;20520;-88
2022/05/27 11:47:41;;;;;;;7.20;2.53;;;;;;;;;;4937284;28;20031;-84
2022/05/27 11:50:09;;;;;;;9.70;2.53;;;;;;;;;;4984135;28;20102;-85
2022/05/27 11:52:47;;;;;;;6.65;2.63;;;;;;;;;;4989491;28;20053;-86
2022/05/27 11:55:13;;;;;;;10.80;3.00;;;;;;;;;;4973527;28;20030;-85
2022/05/27 11:57:52;;;;;;;8.67;2.60;;;;;;;;;;4986270;28;20027;-90
2022/05/27 12:00:22;;;;;;;15.40;3.22;;;;;;;;;;4971623;28;20272;-86
2022/05/27 12:02:54;;;;;;;7.65;3.03;;;;;;;;;;4988112;28;20022;-87
2022/05/27 12:05:26;;;;;;;9.65;2.58;;;;;;;;;;4980547;28;20025;-87
2022/05/27 12:07:51;;;;;;;15.35;3.00;;;;;;;;;;4986425;28;20032;-85
2022/05/27 12:10:19;;;;;;;11.80;3.05;;;;;;;;;;4969264;28;20026;-85
2022/05/27 12:12:51;;;;;;;13.13;3.42;;;;;;;;;;4983238;28;20061;-87
2022/05/27 12:15:34;;;;;;;7.53;2.50;;;;;;;;;;4987173;28;20646;-87
2022/05/27 12:18:00;;;;;;;9.35;2.60;;;;;;;;;;4984509;28;20022;-84
2022/05/27 12:20:28;;;;;;;12.43;2.17;;;;;;;;;;5014356;23;20033;-74
2022/05/27 12:22:54;;;;;;;7.30;2.90;;;;;;;;;;5003225;28;20034;-73
2022/05/27 12:25:21;;;;;;;11.32;2.50;;;;;;;;;;5008195;28;20427;-73
2022/05/27 12:27:48;;;;;;;11.70;2.45;;;;;;;;;;5010217;28;20028;-74
2022/05/27 12:30:14;;;;;;;14.73;2.67;;;;;;;;;;5008552;28;20013;-73
2022/05/27 12:32:42;;;;;;;7.63;2.15;;;;;;;;;;5011868;28;20133;-74
2022/05/27 12:35:36;;;;;;;10.27;1.73;;;;;;;;;;5008929;28;20026;-75
2022/05/27 12:38:22;;;;;;;8.07;1.80;;;;;;;;;;4996225;28;20042;-73
2022/05/27 12:40:52;;;;;;;10.63;1.98;;;;;;;;;;5008383;28;20049;-75
2022/05/27 12:43:17;;;;;;;11.93;2.75;;;;;;;;;;5008031;28;20079;-74
2022/05/27 12:45:47;;;;;;;12.68;2.05;;;;;;;;;;5009525;28;20104;-74
2022/05/27 12:48:12;;;;;;;;;;;;;;;;;;5010039;28;20022;-74
2022/05/27 12:50:39;;;;;;;8.10;1.70;;;;;;;;;;5005247;28;19927;-72
2022/05/27 12:53:14;;;;;;;13.43;2.67;;;;;;;;;;5010891;28;20485;-73
2022/05/27 13:01:24;;;;;;;7.63;1.80;;;;;;;;;;5010186;28;20052;-71
2022/05/27 13:03:50;;;;;;;15.70;2.90;;;;;;;;;;5009713;28;20034;-71
2022/05/27 13:06:17;;;;;;;9.48;1.60;;;;;;;;;;5008350;28;20037;-72
2022/05/27 13:08:46;;;;;;;8.82;2.33;;;;;;;;;;5009157;28;20490;-73
2022/05/27 13:11:27;;;;;;;6.28;2.00;;;;;;;;;;5007785;28;20478;-74
2022/05/27 13:13:59;;;;;;;6.25;1.65;;;;;;;;;;5006825;28;20473;-74
2022/05/27 13:16:37;;;;;;;5.28;2.13;;;;;;;;;;5011406;28;20022;-74
2022/05/27 13:19:07;;;;;;;6.53;1.55;;;;;;;;;;5004149;28;20092;-74
2022/05/27 13:21:41;;;;;;;6.78;2.30;;;;;;;;;;5008367;28;20060;-74
2022/05/27 13:24:12;;;;;;;8.50;2.45;;;;;;;;;;5009972;28;20038;-72
2022/05/27 13:26:37;;;;;;;6.95;2.00;;;;;;;;;;5011106;28;20059;-73
2022/05/27 13:29:13;;;;;;;14.43;2.73;;;;;;;;;;5023558;28;20026;-72
2022/05/27 13:31:41;;;;;;;8.55;1.58;;;;;;;;;;5025489;28;20482;-75
2022/05/27 13:34:08;;;;;;;8.20;2.38;;;;;;;;;;5006095;28;20014;-72
2022/05/27 13:36:48;;;;;;;8.75;1.92;;;;;;;;;;5022871;28;20068;-74
2022/05/27 13:39:17;;;;;;;15.40;1.98;;;;;;;;;;5024250;28;20018;-73
2022/05/27 13:41:46;;;;;;;8.38;1.88;;;;;;;;;;5009204;28;20099;-74
2022/05/27 13:44:13;;;;;;;9.80;2.35;;;;;;;;;;5009511;28;20030;-74
2022/05/27 13:46:40;;;;;;;10.70;2.60;;;;;;;;;;5009301;28;20580;-73
2022/05/27 13:49:12;;;;;;;8.70;1.90;;;;;;;;;;5007763;28;20033;-73
2022/05/27 13:51:44;;;;;;;15.30;4.55;;;;;;;;;;5008107;28;20421;-74
2022/05/27 13:54:14;;;;;;;13.20;2.42;;;;;;;;;;5006878;28;20014;-74
2022/05/27 13:56:43;;;;;;;14.18;2.42;;;;;;;;;;5010154;28;20022;-74
2022/05/27 13:59:23;;;;;;;10.65;1.88;;;;;;;;;;5002685;28;20029;-75
2022/05/27 14:01:54;;;;;;;8.23;1.70;;;;;;;;;;5007451;28;20026;-75
2022/05/27 14:04:37;;;;;;;7.20;1.98;;;;;;;;;;5008323;28;20045;-71
2022/05/27 14:07:15;;;;;;;17.02;2.10;;;;;;;;;;5005493;28;20053;-75
2022/05/27 14:09:44;;;;;;;11.43;1.98;;;;;;;;;;5008247;28;20030;-75
2022/05/27 14:12:10;;;;;;;11.13;1.77;;;;;;;;;;5004429;28;20029;-74
2022/05/27 14:14:41;;;;;;;9.38;1.83;;;;;;;;;;5005659;28;20032;-73
2022/05/27 14:17:32;;;;;;;12.40;1.88;;;;;;;;;;5006527;28;20458;-74
2022/05/27 14:20:06;;;;;;;8.50;2.08;;;;;;;;;;5007516;28;20037;-74
2022/05/27 14:22:39;;;;;;;10.15;1.98;;;;;;;;;;5009823;28;20494;-75
2022/05/27 14:25:07;;;;;;;9.38;2.28;;;;;;;;;;5004452;28;20121;-74
2022/05/27 14:27:35;;;;;;;10.43;2.08;;;;;;;;;;5005604;28;20042;-74
2022/05/27 14:30:03;;;;;;;10.05;2.10;;;;;;;;;;5009330;28;20030;-73
2022/05/27 14:32:31;;;;;;;12.70;2.67;;;;;;;;;;5009441;28;20037;-74
2022/05/27 14:34:58;;;;;;;14.57;2.33;;;;;;;;;;5007559;28;20271;-74
2022/05/27 14:37:42;;;;;;;7.05;1.77;;;;;;;;;;5011288;28;20017;-74
2022/05/27 14:40:11;;;;;;;9.73;2.38;;;;;;;;;;5010562;28;20101;-74
2022/05/27 14:42:37;;;;;;;12.53;2.27;;;;;;;;;;5008048;28;20076;-73
2022/05/27 14:45:08;;;;;;;15.77;3.25;;;;;;;;;;5008906;28;20378;-74
2022/05/27 14:47:33;;;;;;;6.72;1.98;;;;;;;;;;5009510;28;20451;-75
2022/05/27 14:50:11;;;;;;;11.88;2.63;;;;;;;;;;5008093;28;20058;-75
2022/05/27 14:52:39;;;;;;;7.93;2.42;;;;;;;;;;5006836;28;20101;-73
2022/05/27 14:55:18;;;;;;;11.02;2.10;;;;;;;;;;5006117;28;20466;-75
2022/05/27 14:57:55;;;;;;;8.77;2.05;;;;;;;;;;5007869;28;20033;-75
2022/05/27 15:00:20;;;;;;;16.70;3.90;;;;;;;;;;5006817;28;20014;-75
2022/05/27 15:02:48;;;;;;;16.65;2.67;;;;;;;;;;5003739;28;20018;-74
2022/05/27 15:05:22;;;;;;;12.48;2.25;;;;;;;;;;5009236;28;20026;-74
2022/05/27 15:07:49;;;;;;;15.32;3.22;;;;;;;;;;5005096;28;20041;-75
2022/05/27 15:10:20;;;;;;;8.77;2.03;;;;;;;;;;5010072;28;20022;-75
2022/05/27 15:12:46;;;;;;;12.75;2.53;;;;;;;;;;5007255;28;20441;-75
2022/05/27 15:15:25;;;;;;;9.32;1.90;;;;;;;;;;5007463;28;20079;-74
2022/05/27 15:17:56;;;;;;;12.13;2.55;;;;;;;;;;5001960;28;20018;-74
2022/05/27 15:20:22;;;;;;;7.32;2.40;;;;;;;;;;5006897;28;20512;-74
2022/05/27 15:22:49;;;;;;;9.63;2.33;;;;;;;;;;5005786;28;20088;-75
2022/05/27 15:25:17;;;;;;;14.15;1.85;;;;;;;;;;5005379;28;20347;-75